Time;durP1;ratioP1;P1;durP2;ratioP2;P2;SDS_P1;SDS_P2;PMS_P1;PMS_P2;Temp;Humidity;BMP_temperature;BMP_pressure;BME280_temperature;BME280_humidity;BME280_pressure;Samples;Min_cycle;Max_cycle;Signal;HPM_P1;HPM_P2
2023/08/02 00:01:58;;;;;;;16.70;16.10;;;;;;;-141.02;91.61;41097.09;5113023;28;20228;-62
2023/08/02 00:04:25;;;;;;;16.98;16.35;;;;;;;-141.02;91.65;41116.28;5113293;28;20200;-60
2023/08/02 00:06:53;;;;;;;17.40;16.70;;;;;;;-141.02;90.96;41120.13;5113806;28;20197;-61
2023/08/02 00:09:20;;;;;;;17.55;16.85;;;;;;;-141.02;91.12;41100.94;5112802;28;20608;-63
2023/08/02 00:11:46;;;;;;;17.33;16.63;;;;;;;-141.02;91.10;41139.31;5113187;28;20292;-58
2023/08/02 00:14:15;;;;;;;17.50;16.80;;;;;;;-141.02;90.63;41135.47;5112724;28;20686;-64
2023/08/02 00:16:42;;;;;;;17.42;16.73;;;;;;;-141.02;90.31;41150.81;5112713;28;20229;-60
2023/08/02 00:19:09;;;;;;;17.50;16.80;;;;;;;-141.02;89.91;41150.81;5112770;28;20203;-60
2023/08/02 00:21:36;;;;;;;17.65;16.95;;;;;;;-141.02;89.91;41170.00;5112652;28;20236;-60
2023/08/02 00:24:03;;;;;;;16.98;16.30;;;;;;;-141.02;89.67;41223.72;5113031;28;20195;-65
2023/08/02 00:26:30;;;;;;;17.20;16.50;;;;;;;-141.02;88.87;41146.97;5112874;28;20262;-58
2023/08/02 00:28:56;;;;;;;17.70;17.00;;;;;;;-141.02;88.79;41164.25;5112892;28;20200;-60
2023/08/02 00:31:25;;;;;;;17.27;16.58;;;;;;;-141.02;88.25;41179.59;5112596;28;20196;-62
2023/08/02 00:33:52;;;;;;;17.77;17.08;;;;;;;-141.02;87.94;41175.75;5112522;28;20224;-59
2023/08/02 00:36:19;;;;;;;17.15;16.45;;;;;;;-141.02;87.27;41181.53;5112821;28;20225;-65
2023/08/02 00:38:46;;;;;;;17.40;16.70;;;;;;;-141.02;86.76;41093.25;5112712;28;20280;-65
2023/08/02 00:41:13;;;;;;;17.40;16.70;;;;;;;-141.02;86.49;41196.88;5112748;28;20197;-58
2023/08/02 00:43:40;;;;;;;17.40;16.70;;;;;;;-141.02;86.16;41216.06;5112370;28;20268;-58
2023/08/02 00:46:08;;;;;;;17.80;17.10;;;;;;;-141.02;86.46;41185.34;5112775;28;20252;-66
2023/08/02 00:48:38;;;;;;;17.50;16.80;;;;;;;-141.02;85.58;41204.53;5112391;28;20711;-65
2023/08/02 00:51:05;;;;;;;17.35;16.65;;;;;;;-141.02;85.64;41198.78;5112618;28;20193;-63
2023/08/02 00:53:32;;;;;;;18.05;17.35;;;;;;;-141.02;85.36;41204.53;5112604;28;20280;-65
2023/08/02 00:55:59;;;;;;;17.75;17.05;;;;;;;-141.02;85.42;41227.56;5112541;28;20220;-64
2023/08/02 00:58:33;;;;;;;17.67;16.98;;;;;;;-141.02;85.54;41239.09;5112757;28;20276;-65
2023/08/02 01:01:26;;;;;;;18.02;17.33;;;;;;;-141.02;85.34;41219.91;5112192;28;20203;-64
2023/08/02 01:03:57;;;;;;;17.83;17.13;;;;;;;-141.02;85.16;41166.16;5112474;28;20229;-63
2023/08/02 01:06:35;;;;;;;17.83;17.13;;;;;;;-141.02;85.33;41235.25;5112164;28;20200;-63
2023/08/02 01:09:05;;;;;;;17.60;16.90;;;;;;;-141.02;85.54;41223.72;5112520;28;20240;-58
2023/08/02 01:11:42;;;;;;;17.85;17.15;;;;;;;-141.02;85.56;41237.16;5112396;28;20297;-63
2023/08/02 01:14:13;;;;;;;17.80;17.10;;;;;;;-141.02;86.16;41223.72;5112436;28;20189;-64
2023/08/02 01:16:41;;;;;;;18.30;17.60;;;;;;;-141.02;86.53;41258.28;5112045;28;20270;-65
2023/08/02 01:19:13;;;;;;;17.60;16.90;;;;;;;-141.02;87.15;41237.16;5112438;28;20195;-63
2023/08/02 01:21:41;;;;;;;17.95;17.25;;;;;;;-141.02;87.53;41250.59;5112231;28;20197;-62
2023/08/02 01:24:09;;;;;;;17.58;16.88;;;;;;;-141.02;87.94;41239.09;5112089;28;20566;-64
2023/08/02 01:26:41;;;;;;;17.10;16.40;;;;;;;-141.02;87.70;41246.75;5112138;28;20231;-64
2023/08/02 01:29:13;;;;;;;17.08;16.38;;;;;;;-141.02;88.80;41237.16;5116073;28;20272;-62
2023/08/02 01:31:48;;;;;;;17.02;16.33;;;;;;;-141.02;88.43;41239.09;5116269;28;20189;-60
2023/08/02 01:34:16;;;;;;;16.85;16.15;;;;;;;-141.02;88.42;41308.16;5116390;28;20197;-64
2023/08/02 01:36:47;;;;;;;17.48;16.77;;;;;;;-141.02;88.33;41265.94;5115776;28;20652;-62
2023/08/02 01:39:24;;;;;;;17.15;16.45;;;;;;;-141.02;88.31;41235.25;5115870;28;20285;-64
2023/08/02 01:41:57;;;;;;;17.55;16.85;;;;;;;-141.02;89.26;41239.09;5115890;28;20275;-59
2023/08/02 01:44:23;;;;;;;17.77;17.08;;;;;;;-141.02;89.13;41227.56;5115752;28;20742;-61
2023/08/02 01:46:50;;;;;;;16.90;16.30;;;;;;;-141.02;89.31;41242.91;5115572;28;20284;-59
2023/08/02 01:49:17;;;;;;;16.80;16.20;;;;;;;-141.02;89.53;41254.44;5115952;28;20276;-62
2023/08/02 01:51:44;;;;;;;16.65;16.05;;;;;;;-141.02;89.71;41258.28;5115661;28;20280;-63
2023/08/02 01:54:25;;;;;;;16.60;16.00;;;;;;;-141.02;90.25;41258.28;5115518;28;20264;-63
2023/08/02 01:56:52;;;;;;;16.60;16.00;;;;;;;-141.02;90.52;41241.00;5115715;28;20275;-63
2023/08/02 01:59:19;;;;;;;16.90;16.20;;;;;;;-141.02;91.43;41219.91;5115736;28;20651;-65
2023/08/02 02:02:22;;;;;;;17.20;16.50;;;;;;;-141.02;90.76;41219.91;5115641;28;20204;-57
2023/08/02 02:04:57;;;;;;;16.77;16.08;;;;;;;-141.02;90.11;41223.72;5115306;28;20255;-59
2023/08/02 02:07:34;;;;;;;16.70;16.10;;;;;;;-141.02;90.05;41239.09;5115512;28;20670;-64
2023/08/02 02:10:04;;;;;;;16.50;15.90;;;;;;;-141.02;89.96;41216.06;5115554;28;20632;-65
2023/08/02 02:12:31;;;;;;;16.35;15.73;;;;;;;-141.02;90.02;41262.09;5115157;28;20193;-65
2023/08/02 02:15:03;;;;;;;16.77;16.17;;;;;;;-141.02;89.98;41235.25;5115126;28;20288;-65
2023/08/02 02:17:33;;;;;;;16.85;16.17;;;;;;;-141.02;90.50;41273.63;5115354;28;20258;-66
2023/08/02 02:20:00;;;;;;;16.58;15.98;;;;;;;-141.02;90.66;41225.66;5115004;28;20577;-66
2023/08/02 02:22:30;;;;;;;16.50;15.90;;;;;;;-141.02;91.27;41262.09;5115203;28;20308;-63
2023/08/02 02:24:58;;;;;;;16.55;15.95;;;;;;;-141.02;92.14;41208.38;5114991;28;20280;-62
2023/08/02 02:27:29;;;;;;;16.58;15.98;;;;;;;-141.02;92.35;41216.06;5114945;28;20201;-65
2023/08/02 02:30:09;;;;;;;17.25;16.55;;;;;;;-141.02;91.75;41239.09;5114864;28;20229;-65
2023/08/02 02:32:37;;;;;;;15.98;15.38;;;;;;;-141.02;92.27;41219.91;5115058;28;20232;-59
2023/08/02 02:35:05;;;;;;;16.63;16.02;;;;;;;-141.02;93.13;41212.22;5115095;28;20284;-57
2023/08/02 02:37:32;;;;;;;16.30;15.70;;;;;;;-141.02;93.60;41208.38;5114977;28;20666;-59
2023/08/02 02:40:08;;;;;;;16.38;15.77;;;;;;;-141.02;92.90;41219.91;5113489;28;20713;-61
2023/08/02 02:42:38;;;;;;;16.52;15.93;;;;;;;-141.02;93.24;41200.72;5114815;28;20252;-61
2023/08/02 02:45:05;;;;;;;16.25;15.65;;;;;;;-141.02;93.68;41181.53;5114587;28;20233;-59
2023/08/02 02:47:32;;;;;;;16.02;15.43;;;;;;;-141.02;94.34;41202.63;5114837;28;20194;-59
2023/08/02 02:49:59;;;;;;;15.82;15.23;;;;;;;-141.02;94.75;41204.53;5114767;28;20578;-64
2023/08/02 02:52:26;;;;;;;16.00;15.40;;;;;;;-141.02;98.49;41139.31;5114788;28;20249;-60
2023/08/02 02:54:53;;;;;;;15.13;14.63;;;;;;;-141.02;100.00;41062.56;5114339;28;20233;-60
2023/08/02 02:57:21;;;;;;;14.90;14.40;;;;;;;-141.02;100.00;40970.47;5114580;28;20229;-59
2023/08/02 02:59:49;;;;;;;14.52;14.02;;;;;;;-141.02;100.00;40893.72;5114553;28;20272;-58
2023/08/02 03:02:16;;;;;;;14.18;13.68;;;;;;;-141.02;100.00;40868.78;5114422;28;20283;-57
2023/08/02 03:04:43;;;;;;;13.65;13.15;;;;;;;-141.02;100.00;40930.16;5114463;28;20232;-62
2023/08/02 03:07:10;;;;;;;13.27;12.88;;;;;;;-141.02;100.00;41112.44;5114098;28;20242;-63
2023/08/02 03:09:37;;;;;;;13.82;13.38;;;;;;;-141.02;100.00;41183.44;5114394;28;20193;-63
2023/08/02 03:12:04;;;;;;;13.63;13.23;;;;;;;-141.02;100.00;41173.84;5114061;28;20287;-64
2023/08/02 03:14:31;;;;;;;13.43;13.02;;;;;;;-141.02;100.00;41148.91;5113965;28;20633;-58
2023/08/02 03:17:00;;;;;;;13.38;12.98;;;;;;;-141.02;100.00;41146.97;5113970;28;20225;-60
2023/08/02 03:19:27;;;;;;;13.27;12.88;;;;;;;-141.02;100.00;41139.31;5114138;28;20224;-65
2023/08/02 03:21:53;;;;;;;12.93;12.52;;;;;;;-141.02;100.00;41158.50;5113884;28;20702;-61
2023/08/02 03:24:20;;;;;;;13.05;12.65;;;;;;;-141.02;100.00;41227.56;5114028;28;20275;-60
2023/08/02 03:26:58;;;;;;;12.48;12.07;;;;;;;-141.02;100.00;41308.16;5113797;28;20197;-57
2023/08/02 03:29:25;;;;;;;12.85;12.45;;;;;;;-141.02;100.00;41484.72;5113693;28;20197;-63
2023/08/02 03:39:27;;;;;;;13.07;12.68;;;;;;;-141.02;100.00;41726.50;5113881;28;20646;-58
2023/08/02 03:42:29;;;;;;;12.82;12.43;;;;;;;-141.02;100.00;41738.03;5113422;28;20200;-63
2023/08/02 03:44:58;;;;;;;12.77;12.38;;;;;;;-141.02;100.00;41741.84;5102417;28;20256;-61
2023/08/02 03:47:25;;;;;;;12.52;12.13;;;;;;;-141.02;100.00;41753.38;5113392;28;20671;-58
2023/08/02 03:53:18;;;;;;;12.45;12.05;;;;;;;-141.02;100.00;41883.88;5113470;28;20728;-61
2023/08/02 03:55:49;;;;;;;12.23;11.82;;;;;;;-141.02;100.00;41922.25;5113167;28;20201;-62
2023/08/02 03:58:21;;;;;;;12.57;12.18;;;;;;;-141.02;100.00;41937.63;5113259;28;20197;-63
2023/08/02 04:00:56;;;;;;;12.82;12.43;;;;;;;-141.02;100.00;42041.25;5113025;28;20253;-64
2023/08/02 04:06:45;;;;;;;12.60;12.20;;;;;;;-141.02;100.00;42104.59;5113049;28;20196;-63
2023/08/02 04:09:12;;;;;;;12.52;12.13;;;;;;;-141.02;100.00;42164.09;5113113;28;20667;-64
2023/08/02 04:11:39;;;;;;;12.75;12.35;;;;;;;-141.02;100.00;42250.47;5113536;28;20197;-65
2023/08/02 04:14:06;;;;;;;12.45;12.05;;;;;;;-141.02;100.00;42309.97;5113218;28;20197;-61
2023/08/02 04:16:34;;;;;;;12.48;12.07;;;;;;;-141.02;100.00;42348.34;5112854;28;20196;-65
2023/08/02 04:19:46;;;;;;;13.00;12.60;;;;;;;-141.02;100.00;42267.75;5113136;28;20193;-59
2023/08/02 04:22:13;;;;;;;13.75;13.35;;;;;;;-141.02;100.00;42271.56;5113071;28;20280;-60
2023/08/02 04:24:40;;;;;;;14.10;13.60;;;;;;;-141.02;100.00;42273.50;5112686;28;20320;-63
2023/08/02 04:27:07;;;;;;;14.18;13.68;;;;;;;-141.02;100.00;42300.38;5112650;28;20250;-62
2023/08/02 04:29:34;;;;;;;14.23;13.80;;;;;;;-141.02;100.00;42394.41;5112822;28;20671;-63
2023/08/02 04:32:03;;;;;;;14.48;13.98;;;;;;;-141.02;99.32;42229.34;5113279;28;20197;-64
2023/08/02 04:34:30;;;;;;;14.43;13.93;;;;;;;-141.02;100.00;42607.50;5112871;28;20624;-60
2023/08/02 04:36:57;;;;;;;14.77;14.27;;;;;;;-141.02;97.70;42344.53;5112852;28;20228;-63
2023/08/02 04:43:44;;;;;;;16.23;15.63;;;;;;;-141.02;94.40;42164.09;5112382;28;20666;-63
2023/08/02 04:46:16;;;;;;;16.35;15.65;;;;;;;-141.02;95.98;42194.81;5112152;28;20706;-66
2023/08/02 04:48:52;;;;;;;16.48;15.77;;;;;;;-141.02;95.18;42152.56;5112389;28;20259;-62
2023/08/02 04:51:23;;;;;;;15.90;15.30;;;;;;;-141.02;95.33;42212.06;5112645;28;20184;-66
2023/08/02 04:53:56;;;;;;;16.20;15.60;;;;;;;-141.02;98.41;42327.25;5112322;28;20205;-65
2023/08/02 04:56:27;;;;;;;15.68;15.07;;;;;;;-141.02;98.55;42381.00;5112358;28;20186;-64
2023/08/02 04:59:01;;;;;;;14.95;14.45;;;;;;;-141.02;98.47;42478.88;5112480;28;20193;-64
2023/08/02 05:04:54;;;;;;;14.98;14.48;;;;;;;-141.02;99.68;42582.53;5102047;28;20612;-66
2023/08/02 05:07:21;;;;;;;15.20;14.70;;;;;;;-141.02;97.68;42544.16;5116656;28;20232;-63
2023/08/02 05:09:48;;;;;;;14.82;14.32;;;;;;;-141.02;97.90;42613.25;5116724;28;20548;-65
2023/08/02 05:12:15;;;;;;;14.02;13.52;;;;;;;-141.02;99.92;42759.16;5116342;28;20193;-62
2023/08/02 05:14:42;;;;;;;14.95;14.45;;;;;;;-141.02;96.24;42636.28;5116745;28;20626;-65
2023/08/02 05:17:09;;;;;;;15.60;15.00;;;;;;;-141.02;95.56;42636.28;5116265;28;20189;-62
2023/08/02 05:19:36;;;;;;;15.90;15.30;;;;;;;-141.02;91.97;42559.50;5116565;28;20193;-62
2023/08/02 05:22:06;;;;;;;16.50;15.90;;;;;;;-141.02;91.87;42571.03;5116335;28;20679;-60
2023/08/02 05:24:33;;;;;;;15.70;15.10;;;;;;;-141.02;92.31;42559.50;5116830;28;20741;-62
2023/08/02 05:27:00;;;;;;;16.02;15.43;;;;;;;-141.02;91.27;42521.13;5116439;28;20225;-64
2023/08/02 05:29:27;;;;;;;15.90;15.30;;;;;;;-141.02;92.84;42559.50;5116012;28;20254;-65
2023/08/02 05:31:54;;;;;;;15.10;14.55;;;;;;;-141.02;97.00;42624.78;5116325;28;20193;-63
2023/08/02 05:34:20;;;;;;;14.88;14.38;;;;;;;-141.02;99.01;42751.47;5116309;28;20193;-65
2023/08/02 05:36:47;;;;;;;14.75;14.25;;;;;;;-141.02;98.82;42809.06;5116190;27;20710;-63
2023/08/02 05:39:16;;;;;;;14.77;14.27;;;;;;;-141.02;95.48;42751.47;5115871;28;20224;-65
2023/08/02 05:41:43;;;;;;;14.40;13.90;;;;;;;-141.02;96.20;42885.84;5115759;28;20208;-60
2023/08/02 05:44:10;;;;;;;14.32;13.82;;;;;;;-141.02;94.78;43123.91;5115849;28;20224;-66
2023/08/02 05:46:37;;;;;;;15.00;14.50;;;;;;;-141.02;89.42;42897.38;5116101;28;20213;-62
2023/08/02 05:49:04;;;;;;;15.52;14.93;;;;;;;-141.02;85.15;42643.97;5116025;28;20573;-65
2023/08/02 05:51:31;;;;;;;16.48;15.88;;;;;;;-141.02;85.74;42686.19;5115933;28;20254;-65
2023/08/02 05:53:58;;;;;;;15.63;15.02;;;;;;;-141.02;86.95;42816.75;5115584;27;20193;-65
2023/08/02 05:56:29;;;;;;;16.60;15.90;;;;;;;-141.02;86.90;42824.41;5115820;28;20642;-64
2023/08/02 05:58:56;;;;;;;16.60;16.00;;;;;;;-141.02;86.13;42751.47;5115467;28;20197;-62
2023/08/02 06:01:24;;;;;;;16.35;15.75;;;;;;;-141.02;84.60;42893.53;5115698;28;20224;-66
2023/08/02 06:03:50;;;;;;;16.05;15.45;;;;;;;-141.02;84.40;43047.13;5115589;28;20714;-65
2023/08/02 06:06:17;;;;;;;16.23;15.63;;;;;;;-141.02;83.12;43095.13;5115581;28;20218;-65
2023/08/02 06:08:45;;;;;;;16.60;15.90;;;;;;;-141.02;82.28;43058.63;5115339;28;20288;-62
2023/08/02 06:11:12;;;;;;;16.90;16.20;;;;;;;-141.02;78.74;42970.31;5115435;28;20280;-64
2023/08/02 06:13:41;;;;;;;17.40;16.60;;;;;;;-141.02;78.04;43066.31;5115394;28;20242;-65
2023/08/02 06:16:08;;;;;;;17.25;16.45;;;;;;;-141.02;76.20;43104.72;5115441;28;20231;-66
2023/08/02 06:18:35;;;;;;;17.40;16.60;;;;;;;-141.02;74.57;43004.88;5115120;28;20280;-60
2023/08/02 06:21:02;;;;;;;17.10;16.30;;;;;;;-141.02;74.19;42928.09;5115026;28;20197;-60
2023/08/02 06:23:29;;;;;;;17.17;16.48;;;;;;;-141.02;74.70;42822.50;5115268;28;20254;-61
2023/08/02 06:25:56;;;;;;;17.40;16.70;;;;;;;-141.02;76.07;42793.69;5115256;28;20243;-62
2023/08/02 06:28:23;;;;;;;17.33;16.63;;;;;;;-141.02;76.45;42784.09;5115389;28;20201;-64
2023/08/02 06:30:51;;;;;;;19.35;18.52;;;;;;;-141.02;76.77;42643.97;5115167;28;20232;-62
2023/08/02 06:33:18;;;;;;;17.42;16.73;;;;;;;-141.02;77.53;42747.63;5115166;28;20201;-62
2023/08/02 06:35:45;;;;;;;17.55;16.85;;;;;;;-141.02;77.93;42939.59;5115101;28;20189;-63
2023/08/02 06:38:12;;;;;;;17.38;16.67;;;;;;;-141.02;78.79;42951.13;5114695;28;20248;-65
2023/08/02 06:40:39;;;;;;;17.27;16.58;;;;;;;-141.02;75.76;42964.56;5114622;28;20750;-64
2023/08/02 06:43:06;;;;;;;17.42;16.73;;;;;;;-141.02;76.74;43020.25;5114943;28;20229;-60
2023/08/02 06:45:33;;;;;;;18.35;17.55;;;;;;;-141.02;73.78;42893.53;5114470;28;20335;-65
2023/08/02 06:48:02;;;;;;;18.30;17.50;;;;;;;-141.02;74.28;43024.06;5115307;28;20717;-58
2023/08/02 06:50:29;;;;;;;18.35;17.55;;;;;;;-141.02;74.02;43139.28;5114510;28;20200;-64
2023/08/02 06:52:55;;;;;;;18.63;17.83;;;;;;;-141.02;72.48;43070.16;5114957;28;20222;-63
2023/08/02 06:55:22;;;;;;;18.45;17.65;;;;;;;-141.02;72.25;43089.34;5114402;28;20240;-62
2023/08/02 06:57:49;;;;;;;18.75;17.95;;;;;;;-141.02;72.08;43062.47;5114610;28;20653;-63
2023/08/02 07:00:17;;;;;;;18.15;17.35;;;;;;;-141.02;70.07;43081.66;5114666;28;20590;-61
2023/08/02 07:02:44;;;;;;;18.10;17.30;;;;;;;-141.02;69.83;43089.34;5114545;28;20199;-64
2023/08/02 07:05:12;;;;;;;19.13;18.33;;;;;;;-141.02;70.42;43070.16;5114072;28;20723;-61
2023/08/02 07:07:39;;;;;;;18.90;18.10;;;;;;;-141.02;70.95;43008.72;5114118;28;20677;-61
2023/08/02 07:10:07;;;;;;;18.65;17.85;;;;;;;-141.02;70.49;43098.94;5114704;28;20261;-65
2023/08/02 07:12:34;;;;;;;18.00;17.30;;;;;;;-141.02;68.19;43118.16;5114415;28;20646;-60
2023/08/02 07:15:01;;;;;;;17.40;16.70;;;;;;;-141.02;68.43;43108.56;5114382;28;20275;-65
2023/08/02 07:17:28;;;;;;;45.42;43.03;;;;;;;-141.02;68.36;43116.22;5114207;28;20284;-65
2023/08/02 07:19:55;;;;;;;35.45;33.65;;;;;;;-141.02;68.95;43125.84;5114167;28;20618;-65
2023/08/02 07:22:24;;;;;;;18.60;17.80;;;;;;;-141.02;69.11;43158.47;5114103;28;20193;-66
2023/08/02 07:24:51;;;;;;;18.17;17.38;;;;;;;-141.02;69.06;43097.03;5113430;28;20319;-66
2023/08/02 07:27:17;;;;;;;18.48;17.67;;;;;;;-141.02;68.13;43191.09;5114017;28;20333;-66
2023/08/02 07:29:49;;;;;;;18.63;17.83;;;;;;;-141.02;67.24;43275.59;5113788;28;20190;-64
2023/08/02 07:32:16;;;;;;;19.02;18.23;;;;;;;-141.02;66.96;43362.00;5113676;28;20666;-67
2023/08/02 07:34:43;;;;;;;17.95;17.15;;;;;;;-141.02;65.46;43358.16;5113859;28;20197;-66
2023/08/02 07:37:10;;;;;;;18.60;17.70;;;;;;;-141.02;66.18;43404.22;5113555;28;20679;-68
2023/08/02 07:39:40;;;;;;;19.00;18.10;;;;;;;-141.02;64.25;43408.06;5113424;28;20193;-67
2023/08/02 07:42:07;;;;;;;18.42;17.63;;;;;;;-141.02;64.79;43411.91;5113958;28;20185;-66
2023/08/02 07:44:35;;;;;;;18.55;17.70;;;;;;;-141.02;63.15;43465.66;5113421;28;20237;-67
2023/08/02 07:47:02;;;;;;;18.88;17.98;;;;;;;-141.02;64.49;43181.50;5113675;28;20193;-66
2023/08/02 07:49:28;;;;;;;19.05;18.17;;;;;;;-141.02;65.06;43292.88;5113341;28;20545;-66
2023/08/02 07:51:56;;;;;;;19.27;18.38;;;;;;;-141.02;65.09;43300.56;5113244;28;20670;-67
2023/08/02 07:54:23;;;;;;;18.80;17.90;;;;;;;-141.02;64.63;43231.44;5113348;28;20321;-66
2023/08/02 07:56:51;;;;;;;18.83;17.92;;;;;;;-141.02;65.34;43137.34;5113477;28;20292;-65
2023/08/02 07:59:18;;;;;;;18.73;17.83;;;;;;;-141.02;65.20;43047.13;5113472;28;20231;-66
2023/08/02 08:01:45;;;;;;;18.63;17.80;;;;;;;-141.02;65.49;42993.34;5113171;28;20288;-65
2023/08/02 08:04:12;;;;;;;18.55;17.65;;;;;;;-141.02;66.86;43204.56;5113249;28;20256;-62
2023/08/02 08:06:39;;;;;;;18.05;17.25;;;;;;;-141.02;65.78;43285.19;5113353;28;20193;-60
2023/08/02 08:09:06;;;;;;;18.58;17.67;;;;;;;-141.02;64.45;43231.44;5113201;28;20612;-63
2023/08/02 08:11:34;;;;;;;18.63;17.73;;;;;;;-141.02;65.17;43242.94;5112880;28;20285;-62
2023/08/02 08:14:03;;;;;;;18.98;18.08;;;;;;;-141.02;63.93;43327.44;5112862;28;20196;-59
2023/08/02 08:16:30;;;;;;;18.42;17.63;;;;;;;-141.02;63.48;43262.16;5113318;28;20220;-67
2023/08/02 08:18:57;;;;;;;18.70;17.80;;;;;;;-141.02;63.96;43362.00;5112737;28;20671;-62
2023/08/02 08:21:24;;;;;;;18.42;17.52;;;;;;;-141.02;62.09;43200.72;5112908;28;20232;-60
2023/08/02 08:23:51;;;;;;;18.60;17.70;;;;;;;-141.02;64.19;43363.91;5113078;28;20193;-61
2023/08/02 08:26:18;;;;;;;18.25;17.45;;;;;;;-141.02;62.76;43360.06;5112931;28;20207;-62
2023/08/02 08:28:45;;;;;;;18.60;17.70;;;;;;;-141.02;62.51;43246.78;5112596;28;20254;-58
2023/08/02 08:31:14;;;;;;;18.70;17.80;;;;;;;-141.02;61.98;43354.31;5112603;28;20231;-61
2023/08/02 08:33:40;;;;;;;18.85;17.95;;;;;;;-141.02;61.66;43386.94;5112539;28;20563;-63
2023/08/02 08:36:14;;;;;;;18.90;18.00;;;;;;;-141.02;61.32;43344.72;5112022;28;20231;-65
2023/08/02 08:38:41;;;;;;;18.83;17.92;;;;;;;-141.02;60.28;43262.16;5112587;28;20269;-66
2023/08/02 08:41:08;;;;;;;18.60;17.70;;;;;;;-141.02;60.59;43300.56;5112478;28;20698;-66
2023/08/02 08:43:35;;;;;;;18.45;17.65;;;;;;;-141.02;60.52;43331.28;5112713;28;20276;-61
2023/08/02 08:46:02;;;;;;;18.65;17.85;;;;;;;-141.02;57.52;43333.19;5112183;28;20677;-62
2023/08/02 08:48:35;;;;;;;19.00;18.20;;;;;;;-141.02;55.29;43266.00;5112738;28;20276;-65
2023/08/02 08:51:03;;;;;;;18.75;17.95;;;;;;;-141.02;54.42;43377.34;5112729;28;20250;-63
2023/08/02 08:53:33;;;;;;;19.40;18.40;;;;;;;-141.02;53.48;43292.88;5112338;28;20220;-62
2023/08/02 08:56:01;;;;;;;19.27;18.27;;;;;;;-141.02;53.78;43338.94;5112548;28;20232;-61
2023/08/02 08:58:28;;;;;;;19.10;18.10;;;;;;;-141.02;53.60;43367.75;5112529;28;20271;-61
2023/08/02 09:00:58;;;;;;;19.27;18.27;;;;;;;-141.02;53.81;43281.34;5112119;28;20652;-60
2023/08/02 09:03:25;;;;;;;19.30;18.30;;;;;;;-141.02;55.48;43362.00;5112285;28;20199;-62
2023/08/02 09:05:57;;;;;;;19.25;18.25;;;;;;;-141.02;54.64;43452.22;5112488;28;20647;-62
2023/08/02 09:08:24;;;;;;;19.20;18.20;;;;;;;-141.02;53.11;43477.19;5112657;28;20189;-64
2023/08/02 09:10:51;;;;;;;19.30;18.30;;;;;;;-141.02;53.49;43342.78;5112200;28;20224;-65
2023/08/02 09:13:22;;;;;;;19.42;18.42;;;;;;;-141.02;53.59;43281.34;5112952;28;20221;-63
2023/08/02 09:16:06;;;;;;;19.35;18.35;;;;;;;-141.02;53.01;43269.81;5112098;28;20197;-63
2023/08/02 09:18:38;;;;;;;19.45;18.48;;;;;;;-141.02;52.38;43312.06;5112542;28;20199;-66
2023/08/02 09:21:07;;;;;;;19.15;18.15;;;;;;;-141.02;51.43;43242.94;5112110;28;20237;-62
2023/08/02 09:23:34;;;;;;;19.10;18.10;;;;;;;-141.02;52.21;43273.66;5112030;28;20284;-65
2023/08/02 09:26:11;;;;;;;19.25;18.25;;;;;;;-141.02;52.65;43273.66;5112258;28;20229;-61
2023/08/02 09:28:38;;;;;;;18.52;17.63;;;;;;;-141.02;54.73;43183.44;5112002;28;20196;-66
2023/08/02 09:31:16;;;;;;;18.60;17.70;;;;;;;-141.02;54.02;43168.06;5112301;28;20197;-60
2023/08/02 09:33:50;;;;;;;18.92;17.92;;;;;;;-141.02;54.80;43189.19;5112195;28;20193;-67
2023/08/02 09:36:27;;;;;;;19.15;18.15;;;;;;;-141.02;53.49;43216.06;5112235;28;20199;-67
2023/08/02 09:39:06;;;;;;;19.17;18.17;;;;;;;-141.02;52.44;43289.03;5112246;28;20354;-65
2023/08/02 09:41:33;;;;;;;19.08;18.08;;;;;;;-141.02;51.80;43242.94;5111853;28;20224;-62
2023/08/02 09:44:01;;;;;;;18.85;17.95;;;;;;;-141.02;51.18;43256.38;5111864;28;20254;-68
2023/08/02 09:46:30;;;;;;;19.08;18.08;;;;;;;-141.02;52.01;43254.47;5111667;28;20724;-62
2023/08/02 09:48:57;;;;;;;18.90;17.90;;;;;;;-141.02;51.06;43392.72;5114063;28;20254;-65
2023/08/02 09:51:39;;;;;;;18.73;17.83;;;;;;;-141.02;49.81;43315.91;5115652;28;20321;-62
2023/08/02 09:54:06;;;;;;;19.20;18.20;;;;;;;-141.02;50.87;43367.75;5115655;28;20663;-63
2023/08/02 09:56:36;;;;;;;19.45;18.45;;;;;;;-141.02;51.13;43335.09;5115736;28;20296;-68
2023/08/02 09:59:04;;;;;;;19.63;18.73;;;;;;;-141.02;50.78;43308.22;5115376;28;20280;-64
2023/08/02 10:01:32;;;;;;;19.08;18.08;;;;;;;-141.02;50.12;43415.75;5115761;28;20197;-61
2023/08/02 10:04:00;;;;;;;19.17;18.17;;;;;;;-141.02;49.81;43446.47;5115298;28;20193;-60
2023/08/02 10:06:32;;;;;;;19.33;18.33;;;;;;;-141.02;49.40;43456.06;5115247;28;20225;-62
2023/08/02 10:09:04;;;;;;;19.05;18.05;;;;;;;-141.02;49.19;43434.94;5115208;28;20609;-63
2023/08/02 10:11:34;;;;;;;19.08;18.08;;;;;;;-141.02;48.82;43396.56;5115604;28;20182;-62
2023/08/02 10:14:03;;;;;;;18.95;17.95;;;;;;;-141.02;49.87;43450.31;5115535;28;20197;-59
2023/08/02 10:16:31;;;;;;;18.85;17.85;;;;;;;-141.02;47.27;43388.88;5115195;28;20200;-60
2023/08/02 10:19:01;;;;;;;18.65;17.75;;;;;;;-141.02;48.01;43446.47;5115031;28;20640;-60
2023/08/02 10:21:31;;;;;;;18.88;17.98;;;;;;;-141.02;48.35;43458.00;5115284;28;20254;-62
2023/08/02 10:24:00;;;;;;;18.60;17.70;;;;;;;-141.02;46.47;43421.50;5115291;28;20225;-60
2023/08/02 10:26:29;;;;;;;18.90;17.90;;;;;;;-141.02;47.42;43444.56;5115032;28;20229;-65
2023/08/02 10:28:57;;;;;;;18.88;17.88;;;;;;;-141.02;46.06;43473.34;5114808;28;20670;-61
2023/08/02 10:31:24;;;;;;;18.65;17.75;;;;;;;-141.02;46.35;43500.25;5114699;28;20667;-64
2023/08/02 10:33:51;;;;;;;18.55;17.65;;;;;;;-141.02;46.90;43538.63;5115105;28;20197;-63
2023/08/02 10:36:18;;;;;;;18.77;17.77;;;;;;;-141.02;46.64;43515.59;5115058;28;20197;-65
2023/08/02 10:38:52;;;;;;;18.65;17.65;;;;;;;-141.02;47.50;43504.06;5114741;28;20232;-68
2023/08/02 10:41:23;;;;;;;18.65;17.65;;;;;;;-141.02;47.63;43484.88;5114997;28;20185;-60
2023/08/02 10:44:14;;;;;;;18.80;17.80;;;;;;;-141.02;47.66;43500.25;5114909;28;20190;-65
2023/08/02 10:46:42;;;;;;;17.95;17.05;;;;;;;-141.02;47.51;43542.47;5114504;27;20216;-66
2023/08/02 10:49:42;;;;;;;18.85;17.85;;;;;;;-141.02;46.53;43554.00;5115084;27;20197;-64
2023/08/02 10:52:30;;;;;;;18.70;17.70;;;;;;;-141.02;46.19;43596.25;5071863;28;20222;-65
2023/08/02 10:55:14;;;;;;;19.33;18.33;;;;;;;-141.02;46.17;43590.47;5071719;28;20244;-64
2023/08/02 10:58:05;;;;;;;18.70;17.70;;;;;;;-141.02;46.61;43540.56;5072090;28;20252;-59
2023/08/02 11:00:33;;;;;;;19.10;18.10;;;;;;;-141.02;47.25;43575.13;5070793;28;20200;-63
2023/08/02 11:03:01;;;;;;;18.73;17.73;;;;;;;-141.02;47.89;43588.56;5071761;28;20309;-60
2023/08/02 11:05:39;;;;;;;18.20;17.30;;;;;;;-141.02;47.71;43555.91;5071489;28;20321;-62
2023/08/02 11:08:08;;;;;;;18.55;17.65;;;;;;;-141.02;47.62;43592.41;5071448;28;20289;-64
2023/08/02 11:10:46;;;;;;;18.95;17.95;;;;;;;-141.02;46.81;43607.75;5071644;28;20229;-64
2023/08/02 11:13:15;;;;;;;18.55;17.55;;;;;;;-141.02;47.35;43653.84;5071360;28;20195;-60
2023/08/02 11:15:42;;;;;;;18.25;17.35;;;;;;;-141.02;46.86;43565.53;5071570;28;20226;-60
2023/08/02 11:18:09;;;;;;;18.45;17.55;;;;;;;-141.02;47.34;43577.03;5071182;28;20203;-61
2023/08/02 11:20:37;;;;;;;19.00;18.00;;;;;;;-141.02;47.83;43596.25;5071273;28;20210;-61
2023/08/02 11:23:19;;;;;;;18.48;17.50;;;;;;;-141.02;47.51;43590.47;5092496;28;20247;-62
2023/08/02 11:25:47;;;;;;;18.45;17.48;;;;;;;-141.02;46.42;43634.66;5114388;28;20225;-63
2023/08/02 11:28:16;;;;;;;18.42;17.42;;;;;;;-141.02;46.49;43619.28;5114760;28;20201;-65
2023/08/02 11:30:43;;;;;;;18.15;17.25;;;;;;;-141.02;46.93;43657.69;5113728;28;20197;-68
2023/08/02 11:33:10;;;;;;;18.55;17.55;;;;;;;-141.02;47.02;43669.22;5113876;28;20193;-63